Time;durP1;ratioP1;P1;durP2;ratioP2;P2;SDS_P1;SDS_P2;PMS_P1;PMS_P2;Temp;Humidity;BMP_temperature;BMP_pressure;BME280_temperature;BME280_humidity;BME280_pressure;Samples;Min_cycle;Max_cycle;Signal;HPM_P1;HPM_P2
2024/01/24 00:04:46;;;;;;;0.35;0.28;;;;;;;5.10;100.00;98700.13;15273438;19;20773;-67
2024/01/24 00:10:10;;;;;;;0.88;0.30;;;;;;;5.21;100.00;98716.16;15269883;19;20354;-66
2024/01/24 00:15:38;;;;;;;0.73;0.38;;;;;;;5.35;100.00;98695.53;15276247;19;20025;-66
2024/01/24 00:21:03;;;;;;;0.57;0.30;;;;;;;5.48;100.00;98696.22;14504942;19;10000162;-68
2024/01/24 00:26:27;;;;;;;1.13;0.40;;;;;;;5.60;100.00;98682.88;15270506;19;20018;-68
2024/01/24 00:31:56;;;;;;;1.55;0.45;;;;;;;5.66;100.00;98644.97;15273519;19;20018;-67
2024/01/24 00:37:20;;;;;;;1.27;0.45;;;;;;;5.77;100.00;98644.94;15284916;19;20371;-66
2024/01/24 00:42:45;;;;;;;1.38;0.50;;;;;;;5.86;100.00;98617.44;15285379;19;20086;-66
2024/01/24 00:48:13;;;;;;;1.85;0.68;;;;;;;6.03;100.00;98601.88;15279393;19;20031;-68
2024/01/24 00:53:42;;;;;;;1.65;0.47;;;;;;;6.06;100.00;98582.88;15272522;19;20022;-68
2024/01/24 00:59:13;;;;;;;1.48;0.60;;;;;;;6.16;100.00;98583.81;15283526;19;20029;-68
2024/01/24 01:04:40;;;;;;;1.63;0.43;;;;;;;6.32;100.00;98575.34;15283507;19;20340;-68
2024/01/24 01:10:05;;;;;;;2.13;0.70;;;;;;;6.39;100.00;98559.59;15279005;19;20106;-68
2024/01/24 01:15:30;;;;;;;1.98;0.50;;;;;;;6.48;100.00;98561.50;15272470;19;20014;-68
2024/01/24 01:20:58;;;;;;;2.53;0.52;;;;;;;6.60;100.00;98540.00;15277169;19;20478;-67
2024/01/24 01:26:22;;;;;;;1.80;0.70;;;;;;;6.69;100.00;98527.66;15271155;19;20337;-67
2024/01/24 01:31:47;;;;;;;2.28;0.75;;;;;;;6.74;100.00;98538.78;15282853;19;20456;-67
2024/01/24 01:37:21;;;;;;;2.42;0.65;;;;;;;6.81;100.00;98502.47;15275163;19;20053;-67
2024/01/24 01:42:47;;;;;;;2.92;0.70;;;;;;;6.89;100.00;98493.72;15282061;19;20514;-68
2024/01/24 01:48:12;;;;;;;1.95;0.80;;;;;;;6.91;100.00;98498.00;15019168;19;5001456;-67
2024/01/24 01:53:40;;;;;;;3.80;1.02;;;;;;;6.96;100.00;98465.44;15284589;19;20015;-67
2024/01/24 01:59:06;;;;;;;2.83;0.90;;;;;;;7.06;100.00;98485.06;15283351;19;20102;-67
2024/01/24 02:04:31;;;;;;;3.97;0.90;;;;;;;7.13;100.00;98487.16;15283607;19;20035;-67
2024/01/24 02:09:58;;;;;;;3.60;0.93;;;;;;;7.18;100.00;98450.09;15286989;19;20037;-67
2024/01/24 02:15:23;;;;;;;2.80;0.90;;;;;;;7.22;100.00;98460.41;15285866;19;20090;-67
2024/01/24 02:20:47;;;;;;;2.20;0.90;;;;;;;7.33;100.00;98429.97;15275158;19;20014;-68
2024/01/24 02:26:15;;;;;;;2.70;0.70;;;;;;;7.42;100.00;98424.75;15284731;19;20013;-67
2024/01/24 02:31:39;;;;;;;3.40;0.80;;;;;;;7.45;100.00;98448.59;15281839;19;20025;-66
2024/01/24 02:37:10;;;;;;;3.60;1.00;;;;;;;7.46;100.00;98408.22;15275867;19;20022;-66
2024/01/24 02:42:37;;;;;;;1.73;0.70;;;;;;;7.50;100.00;98388.19;15282541;19;20019;-67
2024/01/24 02:48:02;;;;;;;1.45;0.50;;;;;;;7.61;100.00;98384.50;15283679;19;20250;-66
2024/01/24 02:53:27;;;;;;;1.85;0.60;;;;;;;7.66;100.00;98387.63;15276088;19;20018;-67
2024/01/24 02:59:05;;;;;;;2.72;0.77;;;;;;;7.71;100.00;98398.75;15279732;19;20029;-67
2024/01/24 03:04:29;;;;;;;2.70;0.50;;;;;;;7.78;100.00;98403.53;15285486;19;20014;-67
2024/01/24 03:09:54;;;;;;;1.42;0.50;;;;;;;7.84;100.00;98370.75;15320644;19;20021;-65
2024/01/24 03:15:21;;;;;;;1.00;0.43;;;;;;;7.94;100.00;98376.13;15276514;19;20082;-64
2024/01/24 03:20:46;;;;;;;1.65;0.50;;;;;;;7.98;100.00;98366.78;15274480;19;20014;-64
2024/01/24 03:26:13;;;;;;;1.60;0.40;;;;;;;8.08;100.00;98356.00;15269462;19;20086;-65
2024/01/24 03:31:40;;;;;;;0.60;0.30;;;;;;;8.20;100.00;98337.91;15276942;19;20555;-64
2024/01/24 03:37:11;;;;;;;1.27;0.30;;;;;;;8.27;100.00;98330.94;15268094;19;20022;-65
2024/01/24 03:42:36;;;;;;;1.43;0.50;;;;;;;8.29;100.00;98302.94;15272186;19;20360;-65
2024/01/24 03:48:03;;;;;;;1.15;0.47;;;;;;;8.32;100.00;98280.34;15268260;19;20019;-65
2024/01/24 03:53:29;;;;;;;2.38;0.50;;;;;;;8.33;100.00;98287.41;15268515;19;20026;-64
2024/01/24 03:58:53;;;;;;;1.25;0.50;;;;;;;8.37;100.00;98266.47;15266942;19;20018;-65
2024/01/24 04:04:20;;;;;;;0.98;0.40;;;;;;;8.40;100.00;98247.38;15273008;19;20014;-64
2024/01/24 04:09:45;;;;;;;2.35;0.60;;;;;;;8.40;100.00;98239.31;15280922;19;20037;-64
2024/01/24 04:15:11;;;;;;;1.52;0.60;;;;;;;8.48;100.00;98266.28;15284009;19;20025;-64
2024/01/24 04:20:38;;;;;;;1.30;0.60;;;;;;;8.54;100.00;98240.66;15281481;19;20018;-65
2024/01/24 04:26:05;;;;;;;1.92;0.60;;;;;;;8.67;100.00;98240.28;15280374;19;20022;-65
2024/01/24 04:31:30;;;;;;;1.75;0.60;;;;;;;8.73;100.00;98259.31;15279508;19;20014;-65
2024/01/24 04:37:07;;;;;;;1.10;0.55;;;;;;;8.81;100.00;98215.56;15280212;19;20030;-64
2024/01/24 04:42:33;;;;;;;0.93;0.40;;;;;;;8.89;100.00;98196.81;15283716;19;20444;-64
2024/01/24 04:47:57;;;;;;;1.50;0.60;;;;;;;8.97;100.00;98192.50;15286997;19;20011;-65
2024/01/24 04:53:25;;;;;;;1.60;0.50;;;;;;;9.05;100.00;98195.25;15279933;19;20694;-65
2024/01/24 04:58:50;;;;;;;1.23;0.50;;;;;;;9.09;100.00;98164.38;15285799;19;20014;-65
2024/01/24 05:04:15;;;;;;;1.60;0.50;;;;;;;9.14;100.00;98151.31;15277566;19;20029;-65
2024/01/24 05:09:42;;;;;;;0.75;0.43;;;;;;;9.18;100.00;98176.88;15284549;19;20018;-63
2024/01/24 05:15:08;;;;;;;1.15;0.50;;;;;;;9.22;100.00;98150.50;15279356;19;20018;-65
2024/01/24 05:20:33;;;;;;;1.40;0.47;;;;;;;9.25;100.00;98142.97;15272776;19;20022;-66
2024/01/24 05:26:01;;;;;;;1.00;0.47;;;;;;;9.31;100.00;98160.31;15273531;19;20053;-65
2024/01/24 05:31:25;;;;;;;1.25;0.60;;;;;;;9.37;100.00;98159.69;15279328;19;20011;-65
2024/01/24 05:36:56;;;;;;;0.65;0.35;;;;;;;9.50;100.00;98156.53;15268597;19;20014;-65
2024/01/24 05:42:24;;;;;;;0.75;0.50;;;;;;;9.65;100.00;98153.25;15268571;19;20551;-65
2024/01/24 05:47:50;;;;;;;0.57;0.20;;;;;;;9.75;100.00;98113.59;15273895;19;20010;-66
2024/01/24 05:53:15;;;;;;;2.05;0.30;;;;;;;9.84;100.00;98126.06;15277290;19;20085;-65
2024/01/24 05:58:42;;;;;;;1.90;0.20;;;;;;;9.85;100.00;98133.13;15274949;19;20017;-66
2024/01/24 06:04:07;;;;;;;0.60;0.30;;;;;;;9.87;100.00;98117.66;15263446;19;20391;-65
2024/01/24 06:09:31;;;;;;;0.40;0.20;;;;;;;9.94;100.00;98111.63;15278054;19;20022;-64
2024/01/24 06:15:00;;;;;;;0.55;0.30;;;;;;;9.98;100.00;98137.19;15283608;19;20039;-65
2024/01/24 06:20:24;;;;;;;0.47;0.20;;;;;;;10.11;100.00;98120.59;15278254;19;20031;-61
2024/01/24 06:25:50;;;;;;;0.47;0.17;;;;;;;10.29;100.00;98129.34;15276988;19;20016;-64
2024/01/24 06:31:17;;;;;;;0.43;0.10;;;;;;;10.36;100.00;98110.69;15280235;19;20010;-63
2024/01/24 06:36:49;;;;;;;0.30;0.10;;;;;;;10.47;100.00;98134.63;15269387;19;20041;-62
2024/01/24 06:42:14;;;;;;;0.03;0.00;;;;;;;10.64;100.00;98116.59;15278602;19;20024;-63
2024/01/24 06:47:41;;;;;;;0.20;0.10;;;;;;;10.69;100.00;98110.69;15274521;19;20014;-62
2024/01/24 06:53:10;;;;;;;0.08;0.08;;;;;;;10.78;100.00;98100.75;15279754;19;20010;-64
2024/01/24 06:58:36;;;;;;;0.00;0.00;;;;;;;10.93;100.00;98157.50;15275758;19;20018;-60
2024/01/24 07:04:05;;;;;;;1.02;0.17;;;;;;;11.05;100.00;98107.59;15271202;19;20018;-64
2024/01/24 07:09:29;;;;;;;0.20;0.10;;;;;;;11.14;100.00;98084.16;15270563;19;20282;-62
2024/01/24 07:14:55;;;;;;;0.05;0.00;;;;;;;11.20;100.00;98125.78;15274363;19;20045;-64
2024/01/24 07:20:23;;;;;;;0.55;0.00;;;;;;;11.30;100.00;98103.97;15275724;19;20364;-65
2024/01/24 07:25:48;;;;;;;0.05;0.05;;;;;;;11.45;100.00;98075.28;15277876;19;20086;-63
2024/01/24 07:31:13;;;;;;;0.00;0.00;;;;;;;11.57;100.00;98095.47;15278558;19;20105;-65
2024/01/24 07:36:48;;;;;;;0.10;0.00;;;;;;;11.71;100.00;98085.75;15272994;19;20020;-65
2024/01/24 07:42:14;;;;;;;0.20;0.10;;;;;;;11.82;100.00;98070.19;15266066;19;20011;-64
2024/01/24 07:47:38;;;;;;;0.47;0.10;;;;;;;11.97;100.00;98044.13;15272056;19;20022;-64
2024/01/24 07:53:06;;;;;;;0.22;0.10;;;;;;;12.10;100.00;98067.00;15277893;19;20046;-64
2024/01/24 07:58:31;;;;;;;0.00;0.00;;;;;;;12.00;100.00;98062.69;15276587;19;20025;-64
2024/01/24 08:03:58;;;;;;;0.00;0.00;;;;;;;11.81;100.00;98058.56;15265670;19;20010;-61
2024/01/24 08:09:26;;;;;;;0.20;0.10;;;;;;;11.86;100.00;98066.97;15271981;19;20014;-65
2024/01/24 08:14:51;;;;;;;0.75;0.10;;;;;;;11.92;100.00;98029.47;15269332;19;20018;-64
2024/01/24 08:20:19;;;;;;;0.22;0.00;;;;;;;11.97;100.00;98071.09;15272013;19;20022;-64
2024/01/24 08:25:47;;;;;;;0.38;0.10;;;;;;;12.00;100.00;98076.19;15266736;19;20395;-64
2024/01/24 08:31:13;;;;;;;0.47;0.20;;;;;;;12.07;100.00;98099.75;15274870;19;20019;-64
2024/01/24 08:36:45;;;;;;;0.38;0.10;;;;;;;11.97;100.00;98133.19;15267869;19;20022;-63
2024/01/24 08:42:13;;;;;;;0.30;0.10;;;;;;;11.31;100.00;98106.53;15269034;19;20045;-63
2024/01/24 08:47:38;;;;;;;0.22;0.10;;;;;;;10.69;100.00;98140.34;15260889;19;20018;-63
2024/01/24 08:53:04;;;;;;;1.27;0.10;;;;;;;10.34;100.00;98188.09;15272290;19;20015;-63
2024/01/24 08:58:31;;;;;;;0.40;0.10;;;;;;;9.99;100.00;98160.41;15287773;19;20017;-64
2024/01/24 09:03:56;;;;;;;1.10;0.25;;;;;;;9.94;100.00;98189.66;15285304;19;20022;-65
2024/01/24 09:09:21;;;;;;;0.95;0.30;;;;;;;10.13;100.00;98200.16;15283597;19;20760;-65
2024/01/24 09:14:50;;;;;;;0.32;0.20;;;;;;;10.37;100.00;98176.13;15279268;19;20522;-66
2024/01/24 09:20:17;;;;;;;1.25;0.30;;;;;;;10.55;100.00;98197.56;15278743;19;20472;-65
2024/01/24 09:25:42;;;;;;;0.75;0.30;;;;;;;10.72;100.00;98193.03;15274583;19;20439;-65
2024/01/24 09:31:09;;;;;;;1.15;0.50;;;;;;;10.82;100.00;98182.91;15286831;19;20034;-64
2024/01/24 09:36:35;;;;;;;1.90;0.70;;;;;;;10.88;100.00;98208.34;15277749;19;20023;-65
2024/01/24 09:42:00;;;;;;;2.75;0.90;;;;;;;10.89;100.00;98181.25;15281656;19;20027;-65
2024/01/24 09:47:29;;;;;;;3.58;1.00;;;;;;;10.77;100.00;98169.97;15278430;19;20050;-65
2024/01/24 09:52:54;;;;;;;2.58;0.80;;;;;;;10.72;100.00;98258.56;15279464;19;20014;-64
2024/01/24 09:58:19;;;;;;;5.63;1.10;;;;;;;10.72;100.00;98228.06;15284761;19;20508;-64
2024/01/24 10:03:47;;;;;;;3.28;1.00;;;;;;;10.79;100.00;98291.91;15281628;19;20014;-64
2024/01/24 10:09:13;;;;;;;5.05;1.40;;;;;;;11.10;100.00;98196.06;15026476;19;5000707;-64
2024/01/24 10:14:40;;;;;;;4.10;1.30;;;;;;;11.36;100.00;98193.13;15281109;19;20550;-65
2024/01/24 10:20:12;;;;;;;6.13;1.50;;;;;;;11.45;100.00;98201.22;15276681;19;20034;-64
2024/01/24 10:25:36;;;;;;;7.22;1.73;;;;;;;11.40;100.00;98209.84;15276591;19;20018;-65
2024/01/24 10:31:01;;;;;;;5.10;1.45;;;;;;;11.36;100.00;98227.38;15281290;19;20018;-64
2024/01/24 10:36:29;;;;;;;5.55;1.58;;;;;;;11.13;100.00;98229.91;15271956;19;20022;-65
2024/01/24 10:41:57;;;;;;;5.60;1.50;;;;;;;10.91;100.00;98235.84;15281073;19;20029;-65
2024/01/24 10:47:29;;;;;;;7.75;1.85;;;;;;;10.85;100.00;98246.44;15273590;19;20022;-64
2024/01/24 10:52:57;;;;;;;5.07;1.30;;;;;;;10.98;100.00;98262.97;15280045;19;20021;-65
2024/01/24 10:58:23;;;;;;;4.68;1.58;;;;;;;11.09;100.00;98238.38;15276062;19;20031;-65
2024/01/24 11:03:53;;;;;;;7.10;1.80;;;;;;;11.08;100.00;98268.16;15278723;19;20018;-65
2024/01/24 11:09:31;;;;;;;10.30;2.22;;;;;;;10.64;100.00;98278.25;15279889;19;20021;-65
2024/01/24 11:15:07;;;;;;;5.10;1.77;;;;;;;10.22;100.00;98332.97;15280391;19;20561;-65
2024/01/24 11:20:34;;;;;;;8.40;2.22;;;;;;;9.74;100.00;98319.06;15273877;19;20010;-64
2024/01/24 11:26:02;;;;;;;10.38;2.00;;;;;;;9.17;100.00;98323.00;15268283;19;20032;-64
2024/01/24 11:31:47;;;;;;;8.60;2.13;;;;;;;9.30;100.00;98319.91;14768106;19;10000588;-65
2024/01/24 11:37:24;;;;;;;8.70;2.03;;;;;;;9.45;100.00;98322.91;15272708;19;20014;-64
2024/01/24 11:43:03;;;;;;;10.83;2.37;;;;;;;9.73;100.00;98403.44;15273617;19;20750;-65
2024/01/24 11:48:29;;;;;;;7.18;2.15;;;;;;;9.89;100.00;98313.09;15278660;19;20473;-64
2024/01/24 11:53:56;;;;;;;5.30;1.80;;;;;;;9.77;100.00;98320.56;15278271;19;20018;-64
2024/01/24 11:59:25;;;;;;;8.70;2.05;;;;;;;9.31;100.00;98344.97;15273679;19;20602;-64
2024/01/24 12:04:50;;;;;;;9.15;2.20;;;;;;;8.70;100.00;98382.31;15274569;19;20020;-65
2024/01/24 12:10:16;;;;;;;8.98;2.30;;;;;;;8.38;100.00;98380.91;15277560;19;20026;-65
2024/01/24 12:15:44;;;;;;;7.82;1.90;;;;;;;8.46;100.00;98360.38;15263499;19;20026;-64
2024/01/24 12:21:08;;;;;;;5.00;1.58;;;;;;;8.76;100.00;98387.94;15274213;19;20085;-64
2024/01/24 12:26:33;;;;;;;9.25;1.98;;;;;;;9.20;100.00;98397.97;15268201;19;20035;-66
2024/01/24 12:32:02;;;;;;;10.13;2.00;;;;;;;9.49;100.00;98382.59;15281987;19;20337;-65
2024/01/24 12:37:35;;;;;;;9.02;2.22;;;;;;;9.66;100.00;98399.72;15282229;19;20014;-64
2024/01/24 12:43:01;;;;;;;7.80;1.80;;;;;;;9.74;100.00;98359.41;15286067;19;20035;-67
2024/01/24 12:48:29;;;;;;;9.30;1.98;;;;;;;9.71;100.00;98360.56;15286738;19;20033;-66
2024/01/24 12:53:54;;;;;;;6.50;1.98;;;;;;;9.76;100.00;98378.09;15287863;19;20042;-67
2024/01/24 12:59:18;;;;;;;9.23;2.15;;;;;;;9.79;100.00;98391.22;15290667;19;20480;-66
2024/01/24 13:04:46;;;;;;;8.65;2.10;;;;;;;9.92;100.00;98447.34;15279506;19;20301;-67
2024/01/24 13:10:11;;;;;;;9.02;2.05;;;;;;;10.01;100.00;98376.41;15287270;19;20447;-67
2024/01/24 13:15:38;;;;;;;6.05;2.15;;;;;;;10.11;100.00;98377.13;15287461;19;20014;-65
2024/01/24 13:21:05;;;;;;;7.53;2.17;;;;;;;10.19;100.00;98376.34;15285635;19;20023;-65
2024/01/24 13:26:30;;;;;;;10.57;2.42;;;;;;;10.16;100.00;98463.66;15273418;19;20568;-64
2024/01/24 13:31:55;;;;;;;9.20;2.40;;;;;;;10.24;100.00;98410.88;15286237;19;20018;-67
2024/01/24 13:37:30;;;;;;;8.52;2.20;;;;;;;10.16;100.00;98374.81;15269248;19;20089;-66
2024/01/24 13:42:56;;;;;;;8.63;2.35;;;;;;;10.25;100.00;98407.16;15274151;19;20041;-67
2024/01/24 13:48:23;;;;;;;7.15;2.10;;;;;;;10.21;100.00;98414.72;15278406;19;20015;-66
2024/01/24 13:53:51;;;;;;;11.93;2.58;;;;;;;10.25;100.00;98444.88;15277923;19;20014;-65
2024/01/24 13:59:15;;;;;;;8.77;2.25;;;;;;;10.27;100.00;98443.69;15276536;19;20045;-65
2024/01/24 14:04:41;;;;;;;10.25;2.63;;;;;;;10.26;100.00;98468.09;15269606;19;20033;-66
2024/01/24 14:10:10;;;;;;;7.97;2.20;;;;;;;10.30;100.00;98440.69;15280899;19;20022;-66
2024/01/24 14:15:35;;;;;;;9.95;2.70;;;;;;;10.36;100.00;98441.03;15254745;19;20014;-66
2024/01/24 14:20:59;;;;;;;9.85;2.60;;;;;;;10.32;100.00;98424.38;15281082;19;20018;-66
2024/01/24 14:26:30;;;;;;;12.18;3.10;;;;;;;10.36;100.00;98463.44;15278231;19;20026;-67
2024/01/24 14:31:54;;;;;;;8.77;2.30;;;;;;;10.48;100.00;98445.19;15278615;19;20478;-67
2024/01/24 14:37:25;;;;;;;12.75;3.17;;;;;;;10.45;100.00;98470.59;15275807;19;20018;-66
2024/01/24 14:42:53;;;;;;;10.55;2.60;;;;;;;10.26;100.00;98454.63;15274049;19;20018;-66
2024/01/24 14:48:18;;;;;;;8.02;2.38;;;;;;;10.09;100.00;98488.69;15271665;19;20042;-66
2024/01/24 14:53:44;;;;;;;10.50;2.90;;;;;;;10.11;100.00;98514.44;15273973;19;20018;-65
2024/01/24 14:59:05;;;;;;;11.85;2.80;;;;;;;10.04;100.00;98524.13;15278631;19;20432;-65
2024/01/24 15:04:29;;;;;;;14.70;2.93;;;;;;;9.98;100.00;98524.75;15276396;19;20025;-65
2024/01/24 15:09:54;;;;;;;9.82;2.90;;;;;;;9.91;100.00;98535.28;15279214;19;20640;-66
2024/01/24 15:15:21;;;;;;;8.85;2.60;;;;;;;9.90;100.00;98544.34;15276104;19;20019;-67
2024/01/24 15:20:50;;;;;;;12.57;4.03;;;;;;;9.79;100.00;98515.84;15279048;19;20015;-65
2024/01/24 15:26:27;;;;;;;10.57;2.73;;;;;;;9.56;100.00;98597.00;15275059;19;20018;-65
2024/01/24 15:31:57;;;;;;;10.98;3.25;;;;;;;9.42;100.00;98670.09;15279790;19;20031;-64
2024/01/24 15:37:28;;;;;;;11.07;2.80;;;;;;;9.40;100.00;98568.06;15275663;19;20077;-65
2024/01/24 15:42:56;;;;;;;11.73;2.77;;;;;;;9.35;100.00;98542.63;15250653;19;20022;-65
2024/01/24 15:48:23;;;;;;;13.13;2.80;;;;;;;9.37;100.00;98554.91;15269721;19;20018;-65
2024/01/24 15:53:48;;;;;;;12.25;2.90;;;;;;;9.31;100.00;98558.19;15272643;19;20022;-64
2024/01/24 15:59:12;;;;;;;12.40;2.67;;;;;;;9.29;100.00;98578.16;15273330;19;20014;-62
2024/01/24 16:04:40;;;;;;;11.55;2.40;;;;;;;9.21;100.00;98585.16;15266368;19;20019;-65
2024/01/24 16:10:04;;;;;;;11.70;3.28;;;;;;;9.15;100.00;98593.78;15272924;19;20030;-65
2024/01/24 16:15:31;;;;;;;10.35;2.83;;;;;;;9.12;100.00;98609.38;15273035;19;20037;-64
2024/01/24 16:20:59;;;;;;;12.55;2.65;;;;;;;9.02;100.00;98615.63;15271333;19;20017;-65
2024/01/24 16:26:24;;;;;;;9.32;2.40;;;;;;;9.00;100.00;98638.25;15271092;19;20020;-64
2024/01/24 16:31:48;;;;;;;10.35;2.67;;;;;;;8.93;100.00;98643.38;15271053;19;20070;-65
2024/01/24 16:37:23;;;;;;;9.15;2.30;;;;;;;8.93;100.00;98649.59;15269708;19;20086;-65
2024/01/24 16:42:49;;;;;;;10.23;3.08;;;;;;;8.91;100.00;98661.50;15268075;19;20083;-66
2024/01/24 16:48:14;;;;;;;8.85;2.63;;;;;;;8.90;100.00;98657.09;15265720;19;20015;-65
2024/01/24 16:53:42;;;;;;;9.98;2.70;;;;;;;8.88;100.00;98645.66;15271240;19;20082;-65
2024/01/24 16:59:06;;;;;;;10.65;2.65;;;;;;;8.83;100.00;98654.16;15272228;19;20030;-66
2024/01/24 17:04:32;;;;;;;8.07;2.35;;;;;;;8.79;100.00;98647.34;15269035;19;20006;-66
2024/01/24 17:10:00;;;;;;;12.15;3.03;;;;;;;8.75;100.00;98684.41;15269619;19;20476;-66
2024/01/24 17:15:25;;;;;;;9.77;2.55;;;;;;;8.62;100.00;98671.28;15270843;19;20019;-65
2024/01/24 17:20:49;;;;;;;11.00;2.92;;;;;;;8.62;100.00;98657.84;15283407;19;20623;-67
2024/01/24 17:26:17;;;;;;;12.50;2.33;;;;;;;8.58;100.00;98667.19;15285242;19;20036;-67
2024/01/24 17:31:41;;;;;;;9.05;2.50;;;;;;;8.52;100.00;98702.66;15287011;19;20021;-67
2024/01/24 17:37:14;;;;;;;13.85;3.10;;;;;;;8.55;100.00;98710.44;15283108;19;20405;-66
2024/01/24 17:42:42;;;;;;;7.72;2.28;;;;;;;8.54;100.00;98684.56;15286842;19;20031;-65
2024/01/24 17:48:07;;;;;;;11.43;2.33;;;;;;;8.54;100.00;98703.34;15287885;19;20018;-66
2024/01/24 17:53:32;;;;;;;11.02;2.30;;;;;;;8.57;100.00;98696.88;15280074;19;20023;-66
2024/01/24 17:58:59;;;;;;;8.90;2.33;;;;;;;8.52;100.00;98721.47;15283750;19;20019;-65
2024/01/24 18:04:24;;;;;;;10.07;2.65;;;;;;;8.42;100.00;98710.69;15283314;19;20025;-65
2024/01/24 18:09:49;;;;;;;10.23;2.38;;;;;;;8.48;100.00;98728.09;15291083;19;20094;-67
2024/01/24 18:15:17;;;;;;;11.02;2.50;;;;;;;8.57;100.00;98721.88;15285329;19;20086;-66
2024/01/24 18:20:41;;;;;;;10.45;3.10;;;;;;;8.61;100.00;98730.50;15288483;19;20018;-65
2024/01/24 18:26:07;;;;;;;13.13;4.00;;;;;;;8.61;100.00;98774.34;15311973;19;20399;-67
2024/01/24 18:31:34;;;;;;;12.43;3.05;;;;;;;8.81;100.00;98768.97;15281086;19;20029;-70
2024/01/24 18:36:59;;;;;;;9.63;2.15;;;;;;;8.74;100.00;98794.69;15276569;19;20024;-70
2024/01/24 18:42:23;;;;;;;11.68;2.63;;;;;;;8.68;100.00;98760.31;15280632;19;20014;-71
2024/01/24 18:47:53;;;;;;;8.60;2.30;;;;;;;8.66;100.00;98748.88;15279993;19;20468;-68
2024/01/24 18:53:19;;;;;;;10.88;2.58;;;;;;;8.59;100.00;98786.19;15280909;19;20482;-69
2024/01/24 18:58:45;;;;;;;8.60;2.13;;;;;;;8.61;100.00;98749.28;15275101;19;20019;-68
2024/01/24 19:04:13;;;;;;;12.63;2.60;;;;;;;8.59;100.00;98797.78;15274139;19;20014;-69
2024/01/24 19:09:39;;;;;;;12.13;2.80;;;;;;;8.51;100.00;98784.22;15277394;19;20082;-69
2024/01/24 19:15:03;;;;;;;9.85;2.55;;;;;;;8.49;100.00;98786.19;15273161;19;20027;-69
2024/01/24 19:20:31;;;;;;;13.15;2.88;;;;;;;8.50;100.00;98803.13;15278354;19;20546;-70
2024/01/24 19:25:55;;;;;;;8.57;2.65;;;;;;;8.45;100.00;98780.22;15273711;19;20024;-67
2024/01/24 19:31:21;;;;;;;11.90;3.00;;;;;;;8.41;100.00;98784.16;15268712;19;20054;-66
2024/01/24 19:36:55;;;;;;;9.55;2.53;;;;;;;8.41;100.00;98776.09;15271090;19;20010;-66
2024/01/24 19:42:22;;;;;;;11.13;2.80;;;;;;;8.37;100.00;98776.53;15274589;19;20053;-66
2024/01/24 19:47:47;;;;;;;10.30;2.80;;;;;;;8.29;100.00;98796.00;15276753;19;20019;-66
2024/01/24 19:53:15;;;;;;;11.95;2.70;;;;;;;8.27;100.00;98798.84;15274203;19;20019;-66
2024/01/24 19:58:49;;;;;;;9.52;2.63;;;;;;;8.28;100.00;98811.28;15269210;19;20483;-66
2024/01/24 20:04:15;;;;;;;10.27;2.30;;;;;;;8.22;100.00;98841.31;15266902;19;20394;-66
2024/01/24 20:09:42;;;;;;;9.13;2.33;;;;;;;8.17;100.00;98830.16;15269273;19;20795;-64
2024/01/24 20:15:11;;;;;;;10.80;2.60;;;;;;;8.12;100.00;98806.41;15269147;19;20015;-65
2024/01/24 20:20:37;;;;;;;11.50;2.95;;;;;;;8.12;100.00;98821.66;15264666;19;20034;-65
2024/01/24 20:26:09;;;;;;;9.80;2.65;;;;;;;8.09;100.00;98821.94;15273311;19;20082;-64
2024/01/24 20:31:34;;;;;;;12.00;2.80;;;;;;;8.09;100.00;98841.56;15275209;19;20025;-64
2024/01/24 20:37:01;;;;;;;11.65;3.20;;;;;;;8.05;100.00;98845.50;15239796;19;20036;-65
2024/01/24 20:42:28;;;;;;;11.23;2.70;;;;;;;8.03;100.00;98866.25;15277086;19;20011;-64
2024/01/24 20:47:53;;;;;;;11.43;3.00;;;;;;;8.03;100.00;98831.38;15271784;19;20032;-64
2024/01/24 20:53:31;;;;;;;11.70;2.97;;;;;;;7.99;100.00;98825.41;15286788;19;20018;-64
2024/01/24 20:58:59;;;;;;;14.05;3.00;;;;;;;7.92;100.00;98845.75;15289628;19;20481;-64
2024/01/24 21:04:26;;;;;;;13.07;2.95;;;;;;;7.95;100.00;98833.88;15284972;19;20019;-64
2024/01/24 21:09:51;;;;;;;11.80;2.80;;;;;;;7.99;100.00;98860.31;15278954;19;20467;-64
2024/01/24 21:15:18;;;;;;;8.38;2.47;;;;;;;8.02;100.00;98845.75;15286906;19;20020;-63
2024/01/24 21:20:43;;;;;;;10.93;2.83;;;;;;;8.06;100.00;98846.34;15288043;19;20555;-64
2024/01/24 21:26:07;;;;;;;9.60;2.80;;;;;;;8.05;100.00;98868.81;15284982;19;20010;-64
2024/01/24 21:31:35;;;;;;;9.75;2.50;;;;;;;8.05;100.00;98876.88;15286801;19;20035;-63
2024/01/24 21:37:06;;;;;;;11.38;2.80;;;;;;;8.02;100.00;98870.78;15281935;19;20492;-64
2024/01/24 21:42:31;;;;;;;11.83;2.90;;;;;;;7.99;100.00;98854.94;15283329;19;20020;-64
2024/01/24 21:47:58;;;;;;;9.55;2.60;;;;;;;7.97;100.00;98889.09;15286932;19;20313;-64
2024/01/24 21:53:23;;;;;;;10.38;2.60;;;;;;;7.98;100.00;98853.25;15285075;19;20033;-64
2024/01/24 21:58:48;;;;;;;12.35;2.65;;;;;;;7.95;100.00;98874.97;15286957;19;20033;-64
2024/01/24 22:04:16;;;;;;;11.55;2.72;;;;;;;7.95;100.00;98874.13;15280568;19;20033;-64
2024/01/24 22:09:40;;;;;;;11.95;2.70;;;;;;;7.95;100.00;98877.66;15283487;19;20022;-64
2024/01/24 22:15:08;;;;;;;8.77;2.45;;;;;;;7.95;100.00;98880.31;15277806;19;20017;-64
2024/01/24 22:20:35;;;;;;;11.15;2.90;;;;;;;7.94;100.00;98886.69;15284073;19;20467;-64
2024/01/24 22:26:00;;;;;;;13.75;2.88;;;;;;;7.91;100.00;98889.66;15282246;19;20014;-63
2024/01/24 22:31:24;;;;;;;11.00;2.75;;;;;;;7.89;100.00;98902.34;15285501;19;20022;-64
2024/01/24 22:36:52;;;;;;;11.85;2.92;;;;;;;7.87;100.00;98901.63;15279442;19;20014;-64
2024/01/24 22:42:16;;;;;;;10.48;2.85;;;;;;;7.85;100.00;98901.75;15284210;19;20331;-64
2024/01/24 22:47:41;;;;;;;13.15;2.70;;;;;;;7.82;100.00;98901.19;15278447;19;20339;-64
2024/01/24 22:53:08;;;;;;;9.15;2.70;;;;;;;7.83;100.00;98932.34;15284127;19;20022;-64
2024/01/24 22:58:33;;;;;;;12.38;2.90;;;;;;;7.80;100.00;98927.28;15282994;19;20078;-63
2024/01/24 23:03:57;;;;;;;13.88;3.15;;;;;;;7.76;100.00;98932.03;15282351;19;20018;-63
2024/01/24 23:09:25;;;;;;;10.07;2.72;;;;;;;7.70;100.00;98944.13;15281704;19;20022;-64
2024/01/24 23:14:50;;;;;;;10.90;2.90;;;;;;;7.74;100.00;98951.94;15266784;19;20126;-63
2024/01/24 23:20:15;;;;;;;14.18;3.15;;;;;;;7.68;100.00;98951.47;15266723;19;20029;-63
2024/01/24 23:25:43;;;;;;;13.65;2.92;;;;;;;7.67;100.00;98941.72;15267115;19;20029;-63
2024/01/24 23:31:09;;;;;;;10.38;2.70;;;;;;;7.63;100.00;98940.28;15280349;19;20044;-63
2024/01/24 23:36:33;;;;;;;11.68;2.80;;;;;;;7.58;100.00;98933.59;15273811;19;20522;-63
2024/01/24 23:42:01;;;;;;;14.15;2.85;;;;;;;7.56;100.00;98933.75;15278106;19;20597;-63
2024/01/24 23:47:25;;;;;;;12.18;2.80;;;;;;;7.52;100.00;98934.97;15271465;19;20360;-63
2024/01/24 23:52:56;;;;;;;10.48;2.55;;;;;;;7.52;100.00;98921.56;15277908;19;20014;-63
2024/01/24 23:58:23;;;;;;;12.23;2.90;;;;;;;7.54;100.00;98927.66;15277387;19;20037;-63
